createdAt,value
2022-11-25T00:01:34.107Z,5.85
2022-11-25T00:04:01.750Z,5.47
2022-11-25T00:06:34.933Z,5.72
2022-11-25T00:09:09.699Z,5.35
2022-11-25T00:11:39.312Z,5.60
2022-11-25T00:14:08.265Z,5.00
2022-11-25T00:16:35.358Z,4.97
2022-11-25T00:19:02.359Z,4.82
2022-11-25T00:21:33.311Z,4.80
2022-11-25T00:24:06.600Z,5.28
2022-11-25T00:26:35.664Z,4.82
2022-11-25T00:29:06.873Z,4.57
2022-11-25T00:31:38.290Z,5.13
2022-11-25T00:34:05.858Z,5.15
2022-11-25T00:36:35.759Z,5.90
2022-11-25T00:39:08.261Z,5.93
2022-11-25T00:41:53.908Z,5.82
2022-11-25T00:44:37.823Z,6.35
2022-11-25T00:47:18.784Z,6.80
2022-11-25T00:49:51.864Z,7.10
2022-11-25T00:52:22.312Z,6.72
2022-11-25T00:54:50.424Z,7.05
2022-11-25T00:57:21.045Z,6.25
2022-11-25T00:59:48.876Z,6.47
2022-11-25T01:02:18.326Z,6.18
2022-11-25T01:04:46.183Z,6.35
2022-11-25T01:07:16.346Z,6.63
2022-11-25T01:09:43.374Z,6.57
2022-11-25T01:12:10.543Z,6.72
2022-11-25T01:14:38.349Z,6.22
2022-11-25T01:17:05.632Z,5.25
2022-11-25T01:19:33.171Z,6.15
2022-11-25T01:22:00.754Z,6.53
2022-11-25T01:24:28.077Z,5.28
2022-11-25T01:26:55.984Z,5.78
2022-11-25T01:29:24.240Z,5.82
2022-11-25T01:31:56.316Z,5.20
2022-11-25T01:34:26.608Z,5.60
2022-11-25T01:36:57.576Z,5.53
2022-11-25T01:39:32.080Z,5.45
2022-11-25T01:42:00.961Z,5.10
2022-11-25T01:44:31.246Z,5.53
2022-11-25T01:46:58.962Z,5.65
2022-11-25T01:49:37.315Z,4.53
2022-11-25T01:52:15.529Z,4.57
2022-11-25T01:54:55.226Z,5.03
2022-11-25T01:57:47.025Z,5.15
2022-11-25T02:00:18.325Z,5.35
2022-11-25T02:02:46.893Z,5.13
2022-11-25T02:05:20.050Z,4.90
2022-11-25T02:07:51.382Z,5.18
2022-11-25T02:10:25.820Z,5.10
2022-11-25T02:12:53.429Z,5.22
2022-11-25T02:15:21.970Z,4.50
2022-11-25T02:17:49.719Z,4.70
2022-11-25T02:20:20.966Z,5.10
2022-11-25T02:23:15.439Z,4.70
2022-11-25T02:25:46.853Z,5.13
2022-11-25T02:28:27.651Z,5.85
2022-11-25T02:30:55.199Z,4.28
2022-11-25T02:33:24.128Z,4.65
2022-11-25T02:35:57.288Z,4.45
2022-11-25T02:38:39.785Z,4.10
2022-11-25T02:41:17.012Z,4.07
2022-11-25T02:43:47.441Z,5.10
2022-11-25T02:46:22.273Z,3.78
2022-11-25T02:49:09.303Z,4.10
2022-11-25T02:51:37.475Z,3.33
2022-11-25T02:54:05.428Z,3.70
2022-11-25T02:56:34.746Z,3.95
2022-11-25T02:59:02.152Z,4.50
2022-11-25T03:01:31.363Z,3.97
2022-11-25T03:03:59.393Z,4.50
2022-11-25T03:06:29.665Z,3.50
2022-11-25T03:08:57.421Z,3.45
2022-11-25T03:11:43.528Z,3.78
2022-11-25T03:14:11.102Z,4.00
2022-11-25T03:16:38.589Z,3.42
2022-11-25T03:19:06.045Z,3.03
2022-11-25T03:21:33.415Z,3.80
2022-11-25T03:24:01.098Z,3.63
2022-11-25T03:26:28.411Z,3.55
2022-11-25T03:28:55.747Z,3.58
2022-11-25T03:31:26.225Z,3.95
2022-11-25T03:33:55.299Z,3.13
2022-11-25T03:36:22.677Z,4.05
2022-11-25T03:38:50.057Z,3.65
2022-11-25T03:41:17.829Z,2.63
2022-11-25T03:43:46.030Z,2.92
2022-11-25T03:46:16.079Z,3.80
2022-11-25T03:48:43.645Z,3.30
2022-11-25T03:51:11.051Z,3.33
2022-11-25T03:53:38.520Z,3.53
2022-11-25T03:56:08.126Z,3.78
2022-11-25T03:58:35.888Z,3.17
2022-11-25T04:01:05.415Z,3.38
2022-11-25T04:03:32.664Z,3.80
2022-11-25T04:06:00.283Z,3.80
2022-11-25T04:08:28.835Z,3.10
2022-11-25T04:10:56.340Z,3.67
2022-11-25T04:13:29.607Z,2.95
2022-11-25T04:15:57.490Z,3.67
2022-11-25T04:18:26.168Z,3.45
2022-11-25T04:20:56.471Z,2.50
2022-11-25T04:23:23.830Z,2.30
2022-11-25T04:26:01.898Z,3.13
2022-11-25T04:28:35.057Z,3.08
2022-11-25T04:31:07.547Z,3.08
2022-11-25T04:33:37.529Z,2.80
2022-11-25T04:36:04.743Z,3.05
2022-11-25T04:38:32.183Z,3.70
2022-11-25T04:40:59.762Z,3.60
2022-11-25T04:43:28.592Z,3.80
2022-11-25T04:46:13.895Z,4.70
2022-11-25T04:48:43.113Z,4.53
2022-11-25T04:51:10.633Z,4.90
2022-11-25T04:53:38.294Z,4.88
2022-11-25T04:56:07.153Z,5.03
2022-11-25T04:59:00.679Z,4.10
2022-11-25T05:01:28.361Z,4.75
2022-11-25T05:04:03.874Z,4.50
2022-11-25T05:06:31.217Z,3.55
2022-11-25T05:08:58.578Z,3.42
2022-11-25T05:11:27.076Z,3.90
2022-11-25T05:13:54.573Z,4.03
2022-11-25T05:16:22.140Z,3.15
2022-11-25T05:18:49.515Z,3.83
2022-11-25T05:21:17.775Z,4.53
2022-11-25T05:23:52.959Z,4.03
2022-11-25T05:27:12.571Z,3.80
2022-11-25T05:29:40.146Z,3.63
2022-11-25T05:32:09.379Z,3.53
2022-11-25T05:34:37.830Z,3.08
2022-11-25T05:37:05.907Z,3.83
2022-11-25T05:39:34.965Z,2.47
2022-11-25T05:42:39.541Z,4.47
2022-11-25T05:45:08.986Z,4.72
2022-11-25T05:47:36.815Z,4.45
2022-11-25T05:50:06.091Z,5.50
2022-11-25T05:52:33.530Z,6.38
2022-11-25T05:55:02.171Z,6.13
2022-11-25T05:57:29.504Z,5.88
2022-11-25T06:00:01.978Z,4.07
2022-11-25T06:02:51.464Z,4.57
2022-11-25T06:05:19.908Z,4.28
2022-11-25T06:07:47.409Z,3.30
2022-11-25T06:10:18.192Z,3.65
2022-11-25T06:12:45.714Z,3.70
2022-11-25T06:15:14.919Z,3.25
2022-11-25T06:17:42.683Z,3.35
2022-11-25T06:20:18.822Z,3.17
2022-11-25T06:22:46.638Z,4.00
2022-11-25T06:25:15.226Z,3.03
2022-11-25T06:28:11.127Z,4.40
2022-11-25T06:30:35.389Z,3.75
2022-11-25T06:33:22.163Z,4.25
2022-11-25T06:35:50.251Z,4.20
2022-11-25T06:38:17.608Z,4.07
2022-11-25T06:40:44.973Z,3.95
2022-11-25T06:43:12.457Z,4.38
2022-11-25T06:45:39.735Z,4.03
2022-11-25T06:48:07.161Z,4.10
2022-11-25T06:51:31.149Z,3.67
2022-11-25T06:57:28.043Z,3.88
2022-11-25T06:59:56.215Z,4.03
2022-11-25T07:03:15.682Z,4.30
2022-11-25T07:05:52.723Z,4.22
2022-11-25T07:08:41.249Z,4.38
2022-11-25T07:12:21.779Z,3.88
2022-11-25T07:15:10.552Z,4.57
2022-11-25T07:17:57.911Z,4.30
2022-11-25T07:32:11.273Z,3.70
2022-11-25T07:53:27.747Z,2.90
2022-11-25T07:56:22.958Z,3.97
2022-11-25T07:59:15.858Z,3.03
2022-11-25T08:02:03.498Z,3.08
2022-11-25T08:04:51.017Z,2.97
2022-11-25T08:07:38.528Z,3.00
2022-11-25T08:10:25.989Z,2.75
2022-11-25T08:13:12.337Z,3.13
2022-11-25T08:16:00.511Z,3.75
2022-11-25T08:18:47.168Z,2.88
2022-11-25T08:21:33.236Z,3.42
2022-11-25T08:24:33.866Z,3.50
2022-11-25T08:27:20.099Z,2.65
2022-11-25T08:30:13.606Z,3.70
2022-11-25T08:33:00.807Z,3.58
2022-11-25T08:36:30.254Z,3.35
2022-11-25T08:42:27.955Z,3.55
2022-11-25T08:45:14.435Z,3.60
2022-11-25T08:48:01.054Z,3.70
2022-11-25T08:50:51.723Z,4.43
2022-11-25T08:53:46.886Z,4.23
2022-11-25T08:59:19.100Z,4.95
2022-11-25T09:02:06.565Z,5.22
2022-11-25T09:04:59.727Z,5.63
2022-11-25T09:07:46.075Z,6.87
2022-11-25T09:10:33.305Z,6.72
2022-11-25T09:13:19.277Z,5.20
2022-11-25T09:16:13.405Z,5.03
2022-11-25T09:19:00.139Z,4.32
2022-11-25T09:21:46.049Z,5.22
2022-11-25T09:24:38.451Z,4.53
2022-11-25T09:27:27.293Z,5.45
2022-11-25T09:30:14.299Z,6.47
2022-11-25T09:33:00.132Z,3.73
2022-11-25T09:35:47.336Z,5.63
2022-11-25T09:38:42.777Z,6.43
2022-11-25T09:41:54.944Z,6.43
2022-11-25T09:45:02.502Z,7.33
2022-11-25T09:48:29.648Z,6.43
2022-11-25T09:51:58.844Z,5.97
2022-11-25T09:54:59.134Z,6.93
2022-11-25T09:58:46.649Z,6.83
2022-11-25T10:01:32.789Z,6.68
2022-11-25T10:04:47.458Z,5.90
2022-11-25T10:07:46.483Z,6.33
2022-11-25T10:12:31.055Z,9.20
2022-11-25T10:15:23.810Z,10.13
2022-11-25T10:18:00.209Z,10.20
2022-11-25T10:20:32.643Z,8.10
2022-11-25T10:23:09.811Z,8.68
2022-11-25T10:25:46.510Z,10.30
2022-11-25T10:28:30.626Z,11.70
2022-11-25T10:31:19.693Z,9.48
2022-11-25T10:33:49.605Z,9.60
2022-11-25T10:36:19.203Z,9.30
2022-11-25T10:39:12.540Z,8.05
2022-11-25T10:42:10.160Z,7.72
2022-11-25T10:44:40.763Z,6.65
2022-11-25T10:47:34.967Z,8.63
2022-11-25T10:50:20.320Z,7.35
2022-11-25T10:52:54.843Z,7.65
2022-11-25T10:55:28.654Z,7.22
2022-11-25T10:57:56.376Z,6.50
2022-11-25T11:00:31.430Z,4.70
2022-11-25T11:03:01.758Z,7.72
2022-11-25T11:05:30.676Z,7.38
2022-11-25T11:08:12.665Z,6.93
2022-11-25T11:10:42.659Z,7.70
2022-11-25T11:13:33.144Z,7.30
2022-11-25T11:16:00.542Z,8.18
2022-11-25T11:18:41.225Z,7.75
2022-11-25T11:21:23.600Z,6.43
2022-11-25T11:23:55.533Z,5.90
2022-11-25T11:26:31.543Z,5.97
2022-11-25T11:29:17.107Z,7.28
2022-11-25T11:32:03.850Z,8.18
2022-11-25T11:35:07.060Z,8.30
2022-11-25T11:37:54.410Z,9.30
2022-11-25T11:40:37.130Z,9.45
2022-11-25T11:43:26.201Z,8.13
2022-11-25T11:46:26.805Z,10.77
2022-11-25T11:49:29.077Z,9.45
2022-11-25T11:52:24.027Z,13.75
2022-11-25T11:54:59.053Z,10.93
2022-11-25T11:57:45.437Z,10.52
2022-11-25T12:00:15.159Z,8.05
2022-11-25T12:02:56.374Z,9.07
2022-11-25T12:05:28.901Z,9.32
2022-11-25T12:08:04.248Z,9.57
2022-11-25T12:10:41.355Z,9.32
2022-11-25T12:13:34.110Z,8.40
2022-11-25T12:16:10.065Z,10.52
2022-11-25T12:19:16.212Z,8.70
2022-11-25T12:22:00.504Z,8.70
2022-11-25T12:24:39.499Z,9.40
2022-11-25T12:27:36.558Z,6.05
2022-11-25T12:30:20.070Z,6.00
2022-11-25T12:32:56.538Z,8.20
2022-11-25T12:36:04.793Z,9.95
2022-11-25T12:38:45.745Z,11.43
2022-11-25T12:41:41.465Z,11.50
2022-11-25T12:44:25.789Z,10.50
2022-11-25T12:46:55.883Z,11.63
2022-11-25T12:49:32.712Z,11.70
2022-11-25T12:52:53.377Z,8.63
2022-11-25T12:55:23.088Z,11.63
2022-11-25T12:58:33.059Z,12.32
2022-11-25T13:01:30.414Z,11.90
2022-11-25T13:04:01.023Z,11.40
2022-11-25T13:06:34.732Z,11.88
2022-11-25T13:09:33.297Z,10.63
2022-11-25T13:12:49.516Z,12.18
2022-11-25T13:15:29.578Z,14.32
2022-11-25T13:18:11.175Z,13.23
2022-11-25T13:20:56.448Z,12.95
2022-11-25T13:23:29.618Z,11.30
2022-11-25T13:26:48.257Z,11.07
2022-11-25T13:29:15.466Z,13.15
2022-11-25T13:31:59.931Z,12.50
2022-11-25T13:34:31.117Z,11.77
2022-11-25T13:37:22.875Z,13.25
2022-11-25T13:39:49.815Z,15.33
2022-11-25T13:42:24.687Z,15.35
2022-11-25T13:44:59.273Z,15.70
2022-11-25T13:47:48.437Z,15.70
2022-11-25T13:50:21.545Z,14.90
2022-11-25T13:52:59.031Z,17.10
2022-11-25T13:55:39.114Z,15.95
2022-11-25T13:58:24.204Z,13.75
2022-11-25T14:00:57.277Z,15.93
2022-11-25T14:03:24.910Z,16.73
2022-11-25T14:06:23.146Z,17.45
2022-11-25T14:09:35.367Z,14.98
2022-11-25T14:12:30.442Z,9.80
2022-11-25T14:15:04.771Z,10.60
2022-11-25T14:18:10.337Z,10.73
2022-11-25T14:21:31.530Z,10.88
2022-11-25T14:24:10.060Z,11.00
2022-11-25T14:26:55.621Z,11.50
2022-11-25T14:29:32.125Z,7.85
2022-11-25T14:32:40.619Z,6.75
2022-11-25T14:35:41.678Z,6.25
2022-11-25T14:38:32.865Z,7.38
2022-11-25T14:41:13.195Z,5.40
2022-11-25T14:43:49.995Z,6.07
2022-11-25T14:46:21.546Z,7.32
2022-11-25T14:49:07.656Z,6.20
2022-11-25T14:51:42.332Z,5.82
2022-11-25T14:54:10.156Z,5.32
2022-11-25T14:56:37.918Z,7.93
2022-11-25T14:59:05.373Z,6.55
2022-11-25T15:01:35.023Z,6.32
2022-11-25T15:04:05.154Z,7.18
2022-11-25T15:06:42.509Z,6.97
2022-11-25T15:09:20.236Z,8.38
2022-11-25T15:11:47.820Z,7.22
2022-11-25T15:14:30.470Z,5.03
2022-11-25T15:16:58.751Z,12.38
2022-11-25T15:19:33.851Z,11.75
2022-11-25T15:22:24.073Z,12.43
2022-11-25T15:24:56.235Z,12.20
2022-11-25T15:27:28.871Z,14.65
2022-11-25T15:29:57.305Z,13.95
2022-11-25T15:32:33.780Z,16.10
2022-11-25T15:35:01.771Z,16.77
2022-11-25T15:37:29.325Z,17.38
2022-11-25T15:40:30.146Z,16.67
2022-11-25T15:43:03.132Z,16.75
2022-11-25T15:45:54.792Z,15.38
2022-11-25T15:48:45.272Z,14.05
2022-11-25T15:51:41.481Z,13.90
2022-11-25T15:54:25.829Z,12.43
2022-11-25T15:57:35.892Z,12.90
2022-11-25T16:00:25.054Z,12.20
2022-11-25T16:02:58.416Z,11.68
2022-11-25T16:05:34.654Z,14.02
2022-11-25T16:08:24.329Z,13.77
2022-11-25T16:10:59.179Z,14.15
2022-11-25T16:13:30.195Z,13.40
2022-11-25T16:16:29.555Z,13.52
2022-11-25T16:19:02.526Z,11.50
2022-11-25T16:21:35.545Z,13.52
2022-11-25T16:24:05.507Z,12.32
2022-11-25T16:26:37.031Z,13.95
2022-11-25T16:29:16.575Z,14.13
2022-11-25T16:31:44.234Z,12.70
2022-11-25T16:34:18.924Z,12.35
2022-11-25T16:36:47.269Z,12.55
2022-11-25T16:39:14.731Z,12.05
2022-11-25T16:41:42.883Z,11.77
2022-11-25T16:44:18.938Z,11.02
2022-11-25T16:46:46.629Z,11.32
2022-11-25T16:49:15.891Z,11.35
2022-11-25T16:51:43.210Z,11.00
2022-11-25T16:54:10.678Z,11.98
2022-11-25T16:56:41.226Z,13.23
2022-11-25T16:59:32.036Z,12.25
2022-11-25T17:02:00.644Z,13.90
2022-11-25T17:04:28.012Z,11.45
2022-11-25T17:07:30.679Z,11.52
2022-11-25T17:09:44.276Z,11.88
2022-11-25T17:12:16.991Z,10.00
2022-11-25T17:14:45.176Z,9.43
2022-11-25T17:17:24.469Z,8.30
2022-11-25T17:20:21.536Z,7.88
2022-11-25T17:22:49.191Z,8.05
2022-11-25T17:25:16.779Z,8.73
2022-11-25T17:27:46.273Z,8.93
2022-11-25T17:30:23.398Z,8.27
2022-11-25T17:33:00.841Z,7.53
2022-11-25T17:35:28.394Z,7.45
2022-11-25T17:38:01.644Z,7.30
2022-11-25T17:40:29.068Z,7.03
2022-11-25T17:42:56.383Z,10.13
2022-11-25T17:45:23.819Z,9.43
2022-11-25T17:47:51.156Z,8.07
2022-11-25T17:50:26.066Z,7.57
2022-11-25T17:52:53.580Z,15.13
2022-11-25T17:55:22.775Z,15.80
2022-11-25T17:57:50.457Z,15.77
2022-11-25T18:00:22.630Z,9.23
2022-11-25T18:05:26.720Z,10.35
2022-11-25T18:07:54.140Z,10.65
2022-11-25T18:10:25.664Z,7.97
2022-11-25T18:12:55.519Z,13.45
2022-11-25T18:15:26.575Z,12.23
2022-11-25T18:18:06.835Z,16.65
2022-11-25T18:20:34.301Z,14.68
2022-11-25T18:23:01.758Z,15.48
2022-11-25T18:25:33.982Z,21.98
2022-11-25T18:30:34.843Z,24.65
2022-11-25T18:33:05.428Z,24.65
2022-11-25T18:35:36.485Z,27.50
2022-11-25T18:38:05.216Z,23.85
2022-11-25T18:40:32.827Z,26.88
2022-11-25T18:43:04.710Z,21.42
2022-11-25T18:45:40.463Z,25.15
2022-11-25T18:48:16.092Z,25.70
2022-11-25T18:50:44.437Z,22.30
2022-11-25T18:53:11.855Z,23.17
2022-11-25T18:55:39.451Z,21.52
2022-11-25T18:58:32.682Z,19.95
2022-11-25T19:01:06.063Z,20.40
2022-11-25T19:03:33.097Z,20.27
2022-11-25T19:06:01.756Z,20.70
2022-11-25T19:08:29.639Z,18.90
2022-11-25T19:10:57.162Z,19.38
2022-11-25T19:13:33.174Z,19.70
2022-11-25T19:16:08.355Z,17.70
2022-11-25T19:18:35.963Z,17.42
2022-11-25T19:21:03.188Z,17.67
2022-11-25T19:23:30.538Z,18.42
2022-11-25T19:26:07.540Z,16.80
2022-11-25T19:28:35.228Z,18.35
2022-11-25T19:31:04.777Z,18.55
2022-11-25T19:33:36.829Z,18.63
2022-11-25T19:36:05.440Z,20.02
2022-11-25T19:38:33.125Z,18.58
2022-11-25T19:41:00.430Z,19.00
2022-11-25T19:43:27.976Z,20.25
2022-11-25T19:45:57.164Z,19.65
2022-11-25T19:48:27.119Z,19.23
2022-11-25T19:50:59.892Z,18.30
2022-11-25T19:53:33.106Z,20.15
2022-11-25T19:56:04.822Z,19.60
2022-11-25T19:58:32.185Z,19.90
2022-11-25T20:01:04.447Z,18.42
2022-11-25T20:03:31.863Z,17.60
2022-11-25T20:05:59.274Z,18.63
2022-11-25T20:08:28.888Z,15.93
2022-11-25T20:10:57.350Z,13.73
2022-11-25T20:13:25.986Z,15.95
2022-11-25T20:15:55.489Z,14.10
2022-11-25T20:18:24.555Z,15.93
2022-11-25T20:21:00.806Z,17.42
2022-11-25T20:23:43.759Z,15.50
2022-11-25T20:26:32.342Z,20.25
2022-11-25T20:28:59.304Z,18.75
2022-11-25T20:31:30.558Z,17.33
2022-11-25T20:33:58.094Z,19.85
2022-11-25T20:36:33.292Z,15.15
2022-11-25T20:39:02.572Z,18.27
2022-11-25T20:41:30.664Z,17.70
2022-11-25T20:43:58.534Z,19.80
2022-11-25T20:46:32.095Z,21.48
2022-11-25T20:49:27.433Z,22.83
2022-11-25T20:51:55.596Z,22.63
2022-11-25T20:54:24.534Z,23.38
2022-11-25T20:56:51.889Z,25.50
2022-11-25T20:59:22.962Z,25.50
2022-11-25T21:01:51.093Z,26.77
2022-11-25T21:04:18.559Z,25.80
2022-11-25T21:06:46.336Z,12.60
2022-11-25T21:09:23.367Z,8.80
2022-11-25T21:11:50.741Z,4.43
2022-11-25T21:14:19.910Z,5.65
2022-11-25T21:16:47.744Z,5.55
2022-11-25T21:19:15.242Z,5.75
2022-11-25T21:21:45.991Z,6.60
2022-11-25T21:24:35.305Z,8.55
2022-11-25T21:27:13.946Z,5.82
2022-11-25T21:29:43.348Z,8.68
2022-11-25T21:32:25.389Z,11.63
2022-11-25T21:34:54.866Z,17.00
2022-11-25T21:37:36.600Z,21.63
2022-11-25T21:40:07.901Z,20.00
2022-11-25T21:42:35.276Z,19.08
2022-11-25T21:45:02.234Z,19.48
2022-11-25T21:47:30.702Z,17.65
2022-11-25T21:49:58.528Z,13.13
2022-11-25T21:52:27.520Z,12.75
2022-11-25T21:54:54.696Z,17.75
2022-11-25T21:57:27.906Z,14.73
2022-11-25T21:59:54.863Z,17.15
2022-11-25T22:02:24.056Z,16.63
2022-11-25T22:04:51.820Z,15.80
2022-11-25T22:07:18.883Z,16.33
2022-11-25T22:09:46.275Z,15.13
2022-11-25T22:12:34.310Z,14.65
2022-11-25T22:15:04.337Z,14.18
2022-11-25T22:17:31.374Z,13.57
2022-11-25T22:19:58.728Z,14.65
2022-11-25T22:22:25.652Z,12.95
2022-11-25T22:24:52.729Z,12.50
2022-11-25T22:27:26.191Z,13.15
2022-11-25T22:29:54.125Z,12.27
2022-11-25T22:32:21.674Z,12.63
2022-11-25T22:34:49.068Z,12.32
2022-11-25T22:37:24.146Z,12.23
2022-11-25T22:39:51.373Z,12.35
2022-11-25T22:42:30.986Z,11.35
2022-11-25T22:45:00.904Z,12.13
2022-11-25T22:47:37.570Z,11.35
2022-11-25T22:50:14.447Z,11.73
2022-11-25T22:52:41.746Z,12.85
2022-11-25T22:55:19.735Z,13.20
2022-11-25T22:57:48.327Z,13.52
2022-11-25T23:00:24.516Z,13.43
2022-11-25T23:02:54.750Z,13.25
2022-11-25T23:05:34.983Z,14.30
2022-11-25T23:08:24.152Z,13.02
2022-11-25T23:10:52.876Z,11.93
2022-11-25T23:13:22.864Z,12.70
2022-11-25T23:15:59.587Z,13.10
2022-11-25T23:18:38.132Z,14.25
2022-11-25T23:21:23.973Z,14.45
2022-11-25T23:23:51.125Z,14.57
2022-11-25T23:26:18.498Z,13.68
2022-11-25T23:28:46.023Z,16.23
2022-11-25T23:31:14.975Z,14.73
2022-11-25T23:33:45.235Z,13.52
2022-11-25T23:36:18.889Z,15.57
2022-11-25T23:38:52.027Z,15.77
2022-11-25T23:41:27.882Z,15.18
2022-11-25T23:43:55.358Z,16.35
2022-11-25T23:46:32.766Z,17.00
2022-11-25T23:49:03.286Z,13.98
2022-11-25T23:51:30.908Z,14.77
2022-11-25T23:53:58.730Z,14.07
2022-11-25T23:56:28.090Z,12.18
2022-11-25T23:58:55.028Z,10.63
